Clever, MO

9:34 PM CST on December 18, 2014 (GMT -0600)
At James River | Change Station
CLOSE
Current Station
Personal Weather Station
Location: Nixa, MO
Elevation: 1235 ft
Nearby Weather Stations
Active Advisory: Dense Fog Advisory

Elev 1235 ft 37.02 °N, 93.35 °W | Updated 1 day ago

Fog
Fog
36 °F
Feels Like 36 °F
N
3
Wind Variable Wind from ENE
Gusts mph

Today
High -- | Low -- °F
--% Chance of Precip.
Yesterday
High -- | Low -- °F
Precip. -- in
7:21 AM 4:58 PM
Waning Crescent, 10% visible
Pressure 30.23 in
Visibility 6.0 miles
Clouds Overcast 800 ft
Dew Point 34 °F
Humidity 96%
Rainfall 0.00 in
Snow Depth Not available.
UV 0.7 out of 12
Pollen .60 out of 12
Air Quality Not available.
Flu Activity Not available.
METAR KSGF 190252Z 03003KT 6SM BR OVC008 03/02 A3020 RMK AO2 SLP235 T00330022 53010

More Conditions Fewer Conditions

Pressure 30.23 in
Visibility 6.0 miles
Clouds Overcast 800 ft
Dew Point 34 °F
Humidity 96%
Rainfall 0.00 in
Snow Depth Not available.
UV 0.7 out of 12
Pollen .60 out of 12
Air Quality Not available.
Flu Activity Not available.
METAR KSGF 190252Z 03003KT 6SM BR OVC008 03/02 A3020 RMK AO2 SLP235 T00330022 53010

More Conditions Fewer Conditions

10-Day Weather Forecast

Almanac

Astronomy

Dec. 18, 2014 Rise Set
Actual Time
Civil Twilight
Nautical Twilight
Astronomical Twilight
Moon
Length of Visible Light
Length of Day
Tomorrow will be .
, % of the Moon is Illuminated

Today's Extremes

State Highs State Lows

Community

WunderPhotos

Upload Photos

1,778,991 photos uploaded!

WunderBlogs® & News

Nearby

Air Quality

  Air Quality AQ Index Pollutant
Not available.

Snow Depth

Station Depth Elevation

Earthquake Activity

City Distance Mag. Time & Date
Minimum magnitude displayed is 2.5.

Coastal Water Temperatures

Place Temperature

Nearby Weather Stations